Time;durP1;ratioP1;P1;durP2;ratioP2;P2;SDS_P1;SDS_P2;PMS_P1;PMS_P2;Temp;Humidity;BMP_temperature;BMP_pressure;BME280_temperature;BME280_humidity;BME280_pressure;Samples;Min_cycle;Max_cycle;Signal;HPM_P1;HPM_P2
2022/06/08 00:01:33;;;;;;;59.33;36.35;;;;;;;13.55;100.00;101059.28;5115233;28;20459;-73
2022/06/08 00:04:01;;;;;;;56.40;34.88;;;;;;;13.51;100.00;101044.59;5116140;28;20065;-73
2022/06/08 00:06:26;;;;;;;51.60;33.30;;;;;;;13.46;100.00;101041.25;5115723;28;20701;-73
2022/06/08 00:08:52;;;;;;;59.92;36.13;;;;;;;13.42;100.00;101042.25;5114747;28;20142;-73
2022/06/08 00:11:18;;;;;;;59.40;35.88;;;;;;;13.43;100.00;101043.97;5115736;28;20028;-74
2022/06/08 00:13:44;;;;;;;61.85;36.10;;;;;;;13.44;100.00;101035.19;5115639;28;20036;-73
2022/06/08 00:16:10;;;;;;;62.38;37.70;;;;;;;13.47;100.00;101025.50;5115033;28;20027;-74
2022/06/08 00:18:36;;;;;;;65.85;37.95;;;;;;;13.53;100.00;101029.66;5115314;28;20031;-73
2022/06/08 00:21:02;;;;;;;63.17;39.60;;;;;;;13.57;100.00;101021.69;5115547;28;20020;-73
2022/06/08 00:23:27;;;;;;;62.88;36.90;;;;;;;13.63;100.00;101025.84;5114663;28;20032;-73
2022/06/08 00:25:53;;;;;;;62.20;38.22;;;;;;;13.58;100.00;101019.91;5115053;27;20493;-74
2022/06/08 00:28:18;;;;;;;59.17;37.08;;;;;;;13.57;100.00;101005.09;5115571;28;20527;-73
2022/06/08 00:30:44;;;;;;;54.85;34.35;;;;;;;13.52;100.00;101018.34;5114119;28;20031;-74
2022/06/08 00:33:09;;;;;;;63.50;38.25;;;;;;;13.46;100.00;101017.69;5115216;28;20023;-73
2022/06/08 00:35:34;;;;;;;61.88;36.90;;;;;;;13.41;100.00;101011.75;5115053;28;20103;-73
2022/06/08 00:38:00;;;;;;;58.65;36.40;;;;;;;13.36;100.00;101006.66;5114412;28;20026;-73
2022/06/08 00:40:34;;;;;;;58.97;35.75;;;;;;;13.33;100.00;101010.22;5114974;28;20467;-73
2022/06/08 00:42:59;;;;;;;63.13;36.85;;;;;;;13.28;100.00;101006.91;5115350;28;20051;-74
2022/06/08 00:45:25;;;;;;;69.80;37.40;;;;;;;13.18;100.00;101005.47;5114123;28;20067;-73
2022/06/08 00:47:54;;;;;;;62.70;36.97;;;;;;;13.14;100.00;101006.44;5113998;28;20028;-73
2022/06/08 00:50:24;;;;;;;62.75;38.03;;;;;;;13.11;100.00;101006.53;5115031;28;20038;-73
2022/06/08 00:52:51;;;;;;;61.63;36.25;;;;;;;13.08;100.00;101001.41;5113842;28;20570;-73
2022/06/08 00:55:19;;;;;;;61.58;36.97;;;;;;;13.03;100.00;100998.06;5114594;28;20075;-73
2022/06/08 00:58:11;;;;;;;66.93;38.35;;;;;;;12.97;100.00;100993.03;5114887;28;20112;-73
2022/06/08 01:00:38;;;;;;;61.55;35.78;;;;;;;12.93;100.00;100987.03;5114615;28;20177;-73
2022/06/08 01:03:05;;;;;;;61.55;36.13;;;;;;;12.94;100.00;100987.88;5114717;27;20467;-73
2022/06/08 01:05:40;;;;;;;60.35;35.90;;;;;;;12.87;100.00;100985.44;5113484;28;20107;-73
2022/06/08 01:08:37;;;;;;;59.03;34.65;;;;;;;12.86;100.00;100982.91;5114571;28;20471;-73
2022/06/08 01:11:07;;;;;;;64.20;35.00;;;;;;;12.83;100.00;100981.22;5114528;28;20106;-73
2022/06/08 01:13:34;;;;;;;62.22;35.88;;;;;;;12.79;100.00;100984.84;5113338;28;20020;-73
2022/06/08 01:16:03;;;;;;;65.68;36.63;;;;;;;12.82;100.00;100974.28;5114335;28;20528;-74
2022/06/08 01:18:29;;;;;;;61.35;35.05;;;;;;;12.80;100.00;100970.84;5114673;28;20027;-73
2022/06/08 01:21:22;;;;;;;57.25;32.70;;;;;;;12.79;100.00;100963.06;5113431;27;20030;-73
2022/06/08 01:23:51;;;;;;;60.35;33.78;;;;;;;12.76;100.00;100957.94;5097640;28;20039;-74
2022/06/08 01:26:47;;;;;;;59.97;34.25;;;;;;;12.70;100.00;100958.97;5113360;28;20337;-73
2022/06/08 01:29:29;;;;;;;58.35;31.98;;;;;;;12.68;100.00;100959.91;5114283;28;20035;-73
2022/06/08 01:32:16;;;;;;;57.85;33.38;;;;;;;12.68;100.00;100955.53;5113890;28;20358;-73
2022/06/08 01:35:00;;;;;;;60.65;32.85;;;;;;;12.65;100.00;100946.03;5112960;28;20494;-74
2022/06/08 01:37:57;;;;;;;64.70;33.88;;;;;;;12.65;100.00;100945.16;5114266;28;20407;-73
2022/06/08 01:40:46;;;;;;;66.40;34.67;;;;;;;12.66;100.00;100939.03;5113241;28;20054;-73
2022/06/08 01:43:24;;;;;;;65.85;34.13;;;;;;;12.71;100.00;100941.50;5114019;28;20032;-74
2022/06/08 01:45:55;;;;;;;64.43;33.38;;;;;;;12.70;100.00;100932.81;5113836;28;20032;-73
2022/06/08 01:48:45;;;;;;;57.35;31.17;;;;;;;12.72;100.00;100944.09;5113203;28;20110;-74
2022/06/08 01:51:19;;;;;;;58.97;30.90;;;;;;;12.75;100.00;100930.03;5113759;28;20020;-73
2022/06/08 01:53:56;;;;;;;59.95;32.72;;;;;;;12.77;100.00;100933.47;5113574;28;20036;-74
2022/06/08 01:57:07;;;;;;;57.38;30.10;;;;;;;12.82;100.00;100921.13;5112812;28;20100;-74
2022/06/08 01:59:40;;;;;;;52.78;29.85;;;;;;;12.83;100.00;100904.50;5081884;28;20035;-74
2022/06/08 02:02:15;;;;;;;49.78;28.48;;;;;;;12.80;100.00;100910.69;5113083;28;20432;-73
2022/06/08 02:04:51;;;;;;;48.58;27.55;;;;;;;12.78;100.00;100911.63;5113500;28;20019;-73
2022/06/08 02:07:25;;;;;;;46.08;26.40;;;;;;;12.77;100.00;100909.91;5113749;28;20058;-74
2022/06/08 02:10:26;;;;;;;45.53;26.02;;;;;;;12.74;100.00;100895.19;5112310;28;20096;-74
2022/06/08 02:12:58;;;;;;;45.70;25.25;;;;;;;12.73;100.00;100895.22;5107612;28;20554;-74
2022/06/08 02:15:34;;;;;;;47.17;26.13;;;;;;;12.66;100.00;100886.72;5112871;28;20069;-74
2022/06/08 02:18:05;;;;;;;44.20;26.05;;;;;;;12.64;100.00;100885.91;5113504;28;20020;-73
2022/06/08 02:20:46;;;;;;;41.92;24.80;;;;;;;12.58;100.00;100878.25;5113084;28;20019;-73
2022/06/08 02:23:20;;;;;;;41.58;24.25;;;;;;;12.54;100.00;100874.03;5112720;28;20020;-73
2022/06/08 02:25:51;;;;;;;39.75;24.00;;;;;;;12.53;100.00;100869.72;5113188;28;20055;-74
2022/06/08 02:28:37;;;;;;;42.38;24.25;;;;;;;12.43;100.00;100869.13;5113322;28;20460;-73
2022/06/08 02:31:11;;;;;;;41.60;23.42;;;;;;;12.43;100.00;100871.75;5112453;28;20383;-73
2022/06/08 02:36:34;;;;;;;35.03;21.17;;;;;;;12.35;100.00;100861.50;5112916;28;20038;-74
2022/06/08 02:39:11;;;;;;;35.55;21.92;;;;;;;12.30;100.00;100855.56;5113247;28;20023;-74
2022/06/08 02:41:38;;;;;;;32.60;21.10;;;;;;;12.28;100.00;100857.38;5113099;28;20035;-73
2022/06/08 02:44:09;;;;;;;32.05;19.98;;;;;;;12.28;100.00;100862.59;5112776;28;20034;-74
2022/06/08 02:46:52;;;;;;;36.35;19.98;;;;;;;12.25;100.00;100854.84;5112918;28;20032;-74
2022/06/08 02:49:18;;;;;;;33.35;19.73;;;;;;;12.26;100.00;100856.59;5113142;28;20118;-74
2022/06/08 02:51:48;;;;;;;33.20;19.45;;;;;;;12.27;100.00;100849.59;5111811;28;20122;-74
2022/06/08 02:54:23;;;;;;;29.98;18.50;;;;;;;12.23;100.00;100843.59;5113338;28;20072;-74
2022/06/08 02:57:23;;;;;;;31.98;18.65;;;;;;;12.24;100.00;100847.06;5112603;28;20040;-74
2022/06/08 02:59:59;;;;;;;31.25;18.55;;;;;;;12.25;100.00;100838.31;5097930;28;20036;-74
2022/06/08 03:02:33;;;;;;;28.33;18.13;;;;;;;12.24;100.00;100845.31;5113150;28;20036;-74
2022/06/08 03:05:10;;;;;;;27.75;18.10;;;;;;;12.17;100.00;100836.78;5112136;28;20509;-74
2022/06/08 03:07:47;;;;;;;28.70;17.77;;;;;;;12.19;100.00;100828.88;5112846;28;20075;-74
2022/06/08 03:10:15;;;;;;;28.13;16.60;;;;;;;12.21;100.00;100834.94;5114816;28;20467;-74
2022/06/08 03:12:49;;;;;;;26.98;16.40;;;;;;;12.14;100.00;100836.03;5115957;28;20080;-74
2022/06/08 03:15:16;;;;;;;27.88;16.90;;;;;;;12.16;100.00;100832.47;5117003;28;20030;-74
2022/06/08 03:17:47;;;;;;;26.33;16.75;;;;;;;12.15;100.00;100838.59;5116671;28;20076;-73
2022/06/08 03:20:13;;;;;;;27.23;16.40;;;;;;;12.14;100.00;100834.28;5115998;28;20028;-74
2022/06/08 03:22:38;;;;;;;25.38;16.65;;;;;;;12.18;100.00;100824.56;5116353;28;20096;-74
2022/06/08 03:25:04;;;;;;;24.33;16.30;;;;;;;12.21;100.00;100818.41;5116477;28;20027;-74
2022/06/08 03:27:29;;;;;;;25.40;16.60;;;;;;;12.19;100.00;100829.75;5115690;28;20048;-74
2022/06/08 03:29:54;;;;;;;29.55;17.52;;;;;;;12.20;100.00;100833.25;5116150;28;20055;-74
2022/06/08 03:32:20;;;;;;;25.08;15.35;;;;;;;12.21;100.00;100834.94;5116688;28;20019;-74
2022/06/08 03:34:45;;;;;;;22.77;14.82;;;;;;;12.28;100.00;100831.22;5115632;28;20024;-74
2022/06/08 03:37:10;;;;;;;25.48;15.25;;;;;;;12.29;100.00;100822.47;5116377;28;20124;-74
2022/06/08 03:39:36;;;;;;;21.73;14.73;;;;;;;12.32;100.00;100827.59;5115132;28;20364;-74
2022/06/08 03:42:01;;;;;;;21.35;14.38;;;;;;;12.36;100.00;100831.88;5116214;28;20039;-74
2022/06/08 03:44:27;;;;;;;22.40;14.18;;;;;;;12.41;100.00;100827.34;5116475;28;20027;-74
2022/06/08 03:46:56;;;;;;;22.70;14.35;;;;;;;12.47;100.00;100831.53;5115202;28;20069;-74
2022/06/08 03:49:24;;;;;;;25.38;14.45;;;;;;;12.52;100.00;100824.38;5116130;28;20031;-74
2022/06/08 03:51:52;;;;;;;21.15;14.77;;;;;;;12.61;100.00;100831.94;5115770;28;20038;-74
2022/06/08 03:54:22;;;;;;;20.40;13.85;;;;;;;12.68;100.00;100835.19;5115142;28;20391;-74
2022/06/08 03:56:51;;;;;;;23.27;14.35;;;;;;;12.71;100.00;100827.25;5115570;28;20127;-74
2022/06/08 03:59:17;;;;;;;21.50;14.30;;;;;;;12.80;100.00;100839.19;5116036;28;20035;-74
2022/06/08 04:01:43;;;;;;;23.20;14.70;;;;;;;12.84;100.00;100831.19;5114918;28;20045;-74
2022/06/08 04:04:08;;;;;;;19.48;13.77;;;;;;;12.86;100.00;100821.53;5115971;28;20349;-74
2022/06/08 04:06:34;;;;;;;21.35;13.70;;;;;;;12.91;100.00;100821.38;5115663;28;20026;-73
2022/06/08 04:09:00;;;;;;;23.67;14.07;;;;;;;12.98;100.00;100829.88;5115054;28;20023;-74
2022/06/08 04:11:26;;;;;;;19.55;13.20;;;;;;;13.02;100.00;100815.78;5115908;28;20035;-74
2022/06/08 04:13:51;;;;;;;24.98;13.93;;;;;;;13.06;100.00;100828.72;5115606;28;20403;-74
2022/06/08 04:16:16;;;;;;;22.75;14.27;;;;;;;13.11;100.00;100818.06;5114884;28;20046;-74
2022/06/08 04:18:42;;;;;;;18.92;12.82;;;;;;;13.15;100.00;100814.47;5115374;28;20024;-74
2022/06/08 04:21:10;;;;;;;18.25;12.50;;;;;;;13.14;100.00;100812.72;5114228;27;20019;-74
2022/06/08 04:23:36;;;;;;;18.90;12.57;;;;;;;13.13;100.00;100804.03;5114275;28;20474;-74
2022/06/08 04:26:03;;;;;;;16.65;11.60;;;;;;;13.19;100.00;100799.50;5115683;28;20032;-73
2022/06/08 04:28:30;;;;;;;15.43;11.80;;;;;;;13.20;100.00;100804.66;5114306;28;20024;-74
2022/06/08 04:30:55;;;;;;;26.65;11.40;;;;;;;13.23;100.00;100806.34;5114101;28;20027;-74
2022/06/08 04:33:21;;;;;;;18.00;12.15;;;;;;;13.27;100.00;100815.81;5115311;28;20035;-74
2022/06/08 04:35:46;;;;;;;15.48;10.95;;;;;;;13.29;100.00;100804.38;5114819;28;20047;-74
2022/06/08 04:38:12;;;;;;;17.75;11.82;;;;;;;13.33;100.00;100808.59;5114655;28;20031;-74
2022/06/08 04:40:38;;;;;;;18.58;11.95;;;;;;;13.35;100.00;100805.94;5115043;28;20024;-74
2022/06/08 04:43:04;;;;;;;21.33;11.45;;;;;;;13.40;100.00;100803.16;5114220;28;20486;-74
2022/06/08 04:45:30;;;;;;;15.32;11.60;;;;;;;13.44;100.00;100789.03;5115173;28;20024;-74
2022/06/08 04:47:55;;;;;;;19.38;11.65;;;;;;;13.52;100.00;100792.25;5114683;28;20016;-73
2022/06/08 04:50:20;;;;;;;16.95;11.70;;;;;;;13.60;100.00;100787.56;5114009;28;20028;-74
2022/06/08 04:52:46;;;;;;;17.10;11.77;;;;;;;13.69;100.00;100784.59;5114869;28;20022;-74
2022/06/08 04:55:13;;;;;;;15.43;11.68;;;;;;;13.71;100.00;100780.19;5114881;28;20453;-74
2022/06/08 04:57:39;;;;;;;15.85;10.23;;;;;;;13.74;100.00;100774.81;5113907;28;20053;-73
2022/06/08 05:00:07;;;;;;;14.57;11.07;;;;;;;13.77;100.00;100777.31;5114884;28;20016;-74
2022/06/08 05:02:47;;;;;;;12.98;10.13;;;;;;;13.82;100.00;100775.38;5114339;28;20391;-74
2022/06/08 05:05:22;;;;;;;13.93;10.52;;;;;;;13.87;100.00;100775.22;5114103;28;20023;-74
2022/06/08 05:07:49;;;;;;;15.85;10.90;;;;;;;13.87;100.00;100782.22;5114583;28;20042;-74
2022/06/08 05:10:15;;;;;;;13.05;10.20;;;;;;;13.86;100.00;100778.72;5114654;28;20016;-73
2022/06/08 05:12:40;;;;;;;15.00;9.10;;;;;;;13.87;100.00;100775.22;5113424;28;20028;-74
2022/06/08 05:15:10;;;;;;;12.55;9.00;;;;;;;13.87;100.00;100771.75;5114511;28;20034;-74
2022/06/08 05:17:36;;;;;;;12.88;9.13;;;;;;;13.90;100.00;100759.38;5114018;28;20023;-73
2022/06/08 05:20:03;;;;;;;12.95;9.13;;;;;;;13.95;100.00;100759.19;5113701;28;20410;-73
2022/06/08 05:22:29;;;;;;;12.63;9.50;;;;;;;14.01;100.00;100751.09;5114665;28;20028;-74
2022/06/08 05:24:54;;;;;;;13.05;9.18;;;;;;;14.08;100.00;100749.94;5114315;28;20482;-73
2022/06/08 05:27:20;;;;;;;11.98;8.60;;;;;;;14.18;100.00;100756.50;5113641;28;20024;-74
2022/06/08 05:29:45;;;;;;;11.63;9.30;;;;;;;14.25;100.00;100752.72;5114052;28;20389;-73
2022/06/08 05:32:10;;;;;;;15.32;9.23;;;;;;;14.28;100.00;100744.72;5112783;28;20047;-74
2022/06/08 05:34:36;;;;;;;13.15;9.10;;;;;;;14.31;100.00;100745.53;5114007;28;20034;-74
2022/06/08 05:37:01;;;;;;;11.40;8.55;;;;;;;14.34;100.00;100740.16;5114359;28;20027;-74
2022/06/08 05:39:27;;;;;;;11.57;8.00;;;;;;;14.36;100.00;100735.72;5113331;28;20040;-73
2022/06/08 05:41:52;;;;;;;10.48;8.35;;;;;;;14.40;100.00;100726.81;5113707;28;20050;-74
2022/06/08 05:44:20;;;;;;;11.68;8.65;;;;;;;14.49;100.00;100735.16;5113901;28;20470;-73
2022/06/08 05:46:50;;;;;;;11.65;9.02;;;;;;;14.55;100.00;100728.84;5112720;28;20030;-74
2022/06/08 05:49:16;;;;;;;10.88;8.68;;;;;;;14.63;100.00;100725.88;5114006;28;20030;-73
2022/06/08 05:51:41;;;;;;;9.98;8.50;;;;;;;14.68;100.00;100723.91;5113688;28;20027;-73
2022/06/08 05:54:07;;;;;;;9.88;8.10;;;;;;;14.74;100.00;100719.25;5113186;28;20077;-74
2022/06/08 05:56:33;;;;;;;11.02;7.55;;;;;;;14.79;100.00;100713.81;5113592;28;20376;-73
2022/06/08 05:58:58;;;;;;;9.60;7.78;;;;;;;14.83;100.00;100704.88;5113767;28;20032;-73
2022/06/08 06:01:24;;;;;;;9.43;7.55;;;;;;;14.89;100.00;100701.16;5112858;28;20082;-74
2022/06/08 06:03:51;;;;;;;8.60;6.68;;;;;;;14.94;100.00;100699.16;5113223;28;20100;-74
2022/06/08 06:06:17;;;;;;;7.93;6.93;;;;;;;14.95;100.00;100696.50;5113839;28;20140;-74
2022/06/08 06:08:45;;;;;;;9.50;7.10;;;;;;;14.96;100.00;100695.56;5112602;28;20115;-74
2022/06/08 06:11:13;;;;;;;10.70;7.05;;;;;;;15.01;100.00;100699.75;5113498;28;20031;-74
2022/06/08 06:13:39;;;;;;;9.23;7.78;;;;;;;15.05;100.00;100709.22;5113133;28;20534;-74
2022/06/08 06:16:04;;;;;;;8.82;7.18;;;;;;;15.11;100.00;100712.44;5112595;28;20114;-74
2022/06/08 06:18:29;;;;;;;10.38;7.43;;;;;;;15.16;100.00;100709.59;5113666;28;20024;-74
2022/06/08 06:20:55;;;;;;;9.50;7.15;;;;;;;15.21;100.00;100713.72;5113223;28;20106;-74
2022/06/08 06:23:21;;;;;;;8.05;6.95;;;;;;;15.26;100.00;100715.28;5112793;28;20104;-74
2022/06/08 06:25:46;;;;;;;11.80;7.63;;;;;;;15.28;100.00;100716.91;5113282;28;20020;-74
2022/06/08 06:28:11;;;;;;;9.00;7.35;;;;;;;15.33;100.00;100719.31;5113161;28;20036;-73
2022/06/08 06:30:36;;;;;;;11.43;7.05;;;;;;;15.36;100.00;100719.19;5112296;28;20106;-74
2022/06/08 06:33:02;;;;;;;10.50;7.25;;;;;;;15.36;100.00;100719.19;5113391;28;20024;-73
2022/06/08 06:35:29;;;;;;;10.88;6.82;;;;;;;15.42;100.00;100721.53;5112254;28;20053;-73
2022/06/08 06:37:54;;;;;;;8.68;6.57;;;;;;;15.48;100.00;100710.75;5113066;28;20024;-73
2022/06/08 06:40:21;;;;;;;9.05;6.90;;;;;;;15.68;100.00;100713.34;5113290;28;20455;-74
2022/06/08 06:42:46;;;;;;;9.77;7.05;;;;;;;15.92;100.00;100713.09;5111932;28;20143;-74
2022/06/08 06:45:12;;;;;;;10.68;6.50;;;;;;;16.10;100.00;100708.75;5115260;28;20095;-74
2022/06/08 06:47:37;;;;;;;8.10;6.15;;;;;;;16.29;100.00;100711.34;5117041;28;20467;-73
2022/06/08 06:50:05;;;;;;;7.10;5.53;;;;;;;16.40;100.00;100698.50;5116487;28;20023;-74
2022/06/08 06:52:32;;;;;;;9.13;5.97;;;;;;;16.57;100.00;100700.28;5117309;28;20054;-74
2022/06/08 06:54:57;;;;;;;8.75;5.90;;;;;;;16.72;100.00;100688.97;5116654;28;20048;-74
2022/06/08 06:57:22;;;;;;;6.30;5.20;;;;;;;16.81;100.00;100692.97;5116449;28;20051;-74
2022/06/08 06:59:48;;;;;;;10.32;5.10;;;;;;;16.76;100.00;100694.97;5116780;28;20096;-74
2022/06/08 07:02:15;;;;;;;7.72;4.88;;;;;;;16.69;100.00;100693.53;5117311;28;20031;-73
2022/06/08 07:04:41;;;;;;;7.18;4.50;;;;;;;16.58;100.00;100692.31;5115938;28;20364;-74
2022/06/08 07:07:07;;;;;;;6.57;4.40;;;;;;;16.54;100.00;100690.75;5117163;27;20039;-74
2022/06/08 07:09:33;;;;;;;6.50;4.28;;;;;;;16.55;100.00;100684.56;5117081;28;20024;-74
2022/06/08 07:11:58;;;;;;;8.50;4.53;;;;;;;16.61;100.00;100675.50;5115775;28;20463;-74
2022/06/08 07:14:24;;;;;;;6.82;4.20;;;;;;;16.75;100.00;100680.94;5116723;28;20107;-73
2022/06/08 07:16:51;;;;;;;7.38;4.22;;;;;;;16.83;100.00;100689.28;5116729;28;20036;-74
2022/06/08 07:19:16;;;;;;;7.60;4.20;;;;;;;16.88;100.00;100680.31;5116063;28;20463;-74
2022/06/08 07:21:41;;;;;;;5.95;3.72;;;;;;;16.88;100.00;100685.59;5116469;28;20030;-74
2022/06/08 07:24:10;;;;;;;4.95;3.83;;;;;;;16.83;100.00;100675.28;5116700;28;20032;-73
2022/06/08 07:26:35;;;;;;;8.57;3.88;;;;;;;16.81;100.00;100674.53;5115528;28;20088;-73
2022/06/08 07:29:00;;;;;;;7.38;4.07;;;;;;;16.77;100.00;100667.69;5116774;28;20114;-74
2022/06/08 07:31:26;;;;;;;5.57;3.53;;;;;;;16.86;100.00;100672.50;5116608;28;20023;-73
2022/06/08 07:33:53;;;;;;;7.05;4.07;;;;;;;17.00;100.00;100670.00;5115597;27;20024;-74
2022/06/08 07:36:18;;;;;;;6.55;3.70;;;;;;;17.19;100.00;100669.00;5116636;28;20027;-74
2022/06/08 07:38:44;;;;;;;7.55;3.50;;;;;;;17.51;100.00;100669.88;5115267;28;20437;-74
2022/06/08 07:41:10;;;;;;;6.72;3.78;;;;;;;17.75;100.00;100665.03;5116293;28;20028;-74
2022/06/08 07:43:35;;;;;;;8.88;3.42;;;;;;;17.94;100.00;100662.25;5116167;28;20047;-73
2022/06/08 07:46:01;;;;;;;7.88;3.97;;;;;;;18.10;97.40;100662.22;5115560;28;20104;-74
2022/06/08 07:51:11;;;;;;;7.82;3.40;;;;;;;18.58;95.11;100669.06;5116046;28;20042;-74
2022/06/08 07:53:37;;;;;;;6.72;3.10;;;;;;;18.80;89.75;100667.78;5114979;28;20034;-74
2022/06/08 07:56:03;;;;;;;6.00;3.03;;;;;;;18.79;88.70;100671.38;5115397;28;20032;-74
2022/06/08 07:58:29;;;;;;;6.68;3.08;;;;;;;18.87;89.08;100669.97;5116214;28;20102;-73
2022/06/08 08:00:57;;;;;;;5.72;3.13;;;;;;;18.74;87.86;100676.06;5114977;28;20120;-74
2022/06/08 08:03:23;;;;;;;8.25;3.20;;;;;;;18.73;91.05;100687.59;5115955;28;20026;-73
2022/06/08 08:05:48;;;;;;;8.50;2.85;;;;;;;18.73;88.25;100683.16;5115623;27;20031;-74
2022/06/08 08:08:15;;;;;;;6.07;3.00;;;;;;;18.72;84.87;100684.09;5114912;28;20026;-73
2022/06/08 08:10:41;;;;;;;7.28;2.58;;;;;;;18.70;90.21;100678.91;5115746;28;20392;-74
2022/06/08 08:13:10;;;;;;;5.88;2.95;;;;;;;18.74;90.25;100676.94;5115957;28;20016;-74
2022/06/08 08:15:36;;;;;;;7.78;3.22;;;;;;;18.70;84.70;100678.00;5115186;28;20039;-74
2022/06/08 08:18:02;;;;;;;7.68;2.80;;;;;;;18.65;87.43;100674.81;5115818;28;20455;-73
2022/06/08 08:20:28;;;;;;;7.35;3.00;;;;;;;18.58;84.78;100669.06;5116284;28;20031;-73
2022/06/08 08:22:58;;;;;;;5.32;2.67;;;;;;;18.58;85.07;100678.78;5114356;28;20030;-73
2022/06/08 08:25:24;;;;;;;7.32;3.72;;;;;;;18.54;87.65;100677.22;5115686;28;20085;-73
2022/06/08 08:27:50;;;;;;;5.75;2.95;;;;;;;18.49;87.09;100675.72;5115261;28;20094;-74
2022/06/08 08:30:19;;;;;;;8.35;3.33;;;;;;;18.42;84.18;100679.66;5114731;28;20023;-73
2022/06/08 08:32:45;;;;;;;9.93;3.35;;;;;;;18.41;88.10;100677.97;5114951;28;20057;-74
2022/06/08 08:35:12;;;;;;;8.70;3.25;;;;;;;18.36;83.73;100674.75;5114646;28;20023;-73
2022/06/08 08:37:38;;;;;;;6.05;2.92;;;;;;;18.39;86.42;100668.44;5114991;28;20085;-73
2022/06/08 08:40:06;;;;;;;9.02;3.17;;;;;;;18.41;88.14;100671.81;5115666;28;20055;-74
2022/06/08 08:42:32;;;;;;;10.43;3.10;;;;;;;18.48;87.68;100671.38;5114598;28;20027;-74
2022/06/08 08:44:57;;;;;;;8.48;3.53;;;;;;;18.62;88.05;100673.22;5114768;28;20030;-73
2022/06/08 08:47:34;;;;;;;8.90;3.40;;;;;;;18.70;88.27;100670.09;5115107;28;20028;-74
2022/06/08 08:50:26;;;;;;;3.55;3.03;;;;;;;18.77;88.87;100666.19;5113944;28;20089;-73
2022/06/08 08:53:09;;;;;;;9.05;3.45;;;;;;;18.69;86.94;100671.88;5114601;28;20452;-73
2022/06/08 08:56:06;;;;;;;8.23;2.92;;;;;;;18.59;87.70;100672.53;5114759;28;20047;-73
2022/06/08 08:58:41;;;;;;;7.63;3.20;;;;;;;18.47;87.68;100676.75;5114880;28;20030;-74
2022/06/08 09:01:13;;;;;;;4.53;2.78;;;;;;;18.36;88.02;100668.63;5115020;28;20024;-73
2022/06/08 09:03:46;;;;;;;5.55;2.78;;;;;;;18.24;89.66;100672.81;5114048;28;20038;-73
2022/06/08 09:06:19;;;;;;;6.40;2.88;;;;;;;18.19;87.76;100682.81;5114705;28;20023;-73
2022/06/08 09:08:50;;;;;;;6.25;3.00;;;;;;;18.08;87.16;100678.13;5113749;28;20023;-73
2022/06/08 09:11:26;;;;;;;8.43;3.00;;;;;;;18.01;88.70;100674.97;5113841;28;20042;-73
2022/06/08 09:13:54;;;;;;;5.82;3.00;;;;;;;17.89;89.39;100680.97;5114466;28;20028;-73
2022/06/08 09:16:25;;;;;;;6.85;3.28;;;;;;;17.82;88.36;100681.38;5114656;28;20065;-73
2022/06/08 09:18:50;;;;;;;8.25;3.30;;;;;;;17.66;90.21;100676.97;5113355;28;20028;-73
2022/06/08 09:21:36;;;;;;;6.28;3.28;;;;;;;17.54;91.57;100681.13;5114412;28;20068;-73
2022/06/08 09:24:09;;;;;;;10.52;3.13;;;;;;;17.36;94.13;100682.09;5113540;27;20057;-73
2022/06/08 09:26:39;;;;;;;7.78;3.33;;;;;;;17.23;98.10;100675.78;5113863;28;20012;-73
2022/06/08 09:29:10;;;;;;;7.30;4.03;;;;;;;17.15;98.95;100678.00;5114044;28;20024;-73
2022/06/08 09:31:38;;;;;;;7.20;3.78;;;;;;;16.92;98.03;100680.06;5113227;28;20394;-73
2022/06/08 09:34:29;;;;;;;8.93;3.65;;;;;;;16.77;97.36;100680.84;5113736;28;20016;-73
2022/06/08 09:37:10;;;;;;;7.57;3.40;;;;;;;16.70;100.00;100680.28;5113943;28;20062;-74
2022/06/08 09:39:36;;;;;;;14.27;3.40;;;;;;;16.61;100.00;100680.75;5113406;28;20372;-74
2022/06/08 09:42:32;;;;;;;14.20;4.10;;;;;;;16.61;100.00;100691.28;5113723;28;20068;-73
2022/06/08 09:45:35;;;;;;;10.88;3.63;;;;;;;16.46;100.00;100694.72;5113854;28;20042;-74
2022/06/08 09:51:28;;;;;;;12.23;3.72;;;;;;;16.17;100.00;100694.38;5113531;28;20039;-74
2022/06/08 09:54:19;;;;;;;11.23;3.90;;;;;;;16.06;100.00;100694.06;5112994;28;20106;-74
2022/06/08 09:57:07;;;;;;;10.77;3.35;;;;;;;15.96;100.00;100698.91;5113305;28;20532;-74
2022/06/08 10:00:10;;;;;;;13.60;4.57;;;;;;;15.89;100.00;100695.72;5113175;28;20059;-75
2022/06/08 10:03:05;;;;;;;12.68;4.68;;;;;;;15.85;100.00;100691.50;5113627;28;20527;-75
2022/06/08 10:05:53;;;;;;;12.85;4.28;;;;;;;15.85;100.00;100698.56;5113878;28;20031;-75
2022/06/08 10:08:41;;;;;;;11.27;4.00;;;;;;;15.76;100.00;100693.72;5112802;28;20151;-75
2022/06/08 10:14:16;;;;;;;14.50;4.72;;;;;;;15.62;100.00;100686.47;5113051;28;20034;-75
2022/06/08 10:16:54;;;;;;;15.05;4.45;;;;;;;15.58;100.00;100687.53;5113185;28;20379;-75
2022/06/08 10:19:48;;;;;;;14.20;5.70;;;;;;;15.56;100.00;100692.00;5113325;28;20464;-75
2022/06/08 10:22:13;;;;;;;13.93;4.73;;;;;;;15.56;100.00;100690.22;5111795;28;20055;-75
2022/06/08 10:24:54;;;;;;;12.40;5.00;;;;;;;15.60;100.00;100690.97;5113457;28;20769;-76
2022/06/08 10:27:29;;;;;;;9.70;4.85;;;;;;;15.68;100.00;100687.06;5113491;28;20460;-76
2022/06/08 10:30:16;;;;;;;22.60;6.18;;;;;;;15.74;100.00;100692.97;5112451;28;20028;-75
2022/06/08 10:32:47;;;;;;;9.93;5.53;;;;;;;15.78;100.00;100691.88;5113128;28;20039;-76
2022/06/08 10:35:21;;;;;;;12.82;5.38;;;;;;;15.77;100.00;100692.81;5112649;28;20069;-76
2022/06/08 10:37:47;;;;;;;8.95;4.82;;;;;;;15.79;100.00;100696.22;5112997;28;20120;-76
2022/06/08 10:40:22;;;;;;;15.20;5.50;;;;;;;15.83;100.00;100688.13;5113190;28;20055;-76
2022/06/08 10:42:50;;;;;;;13.90;6.18;;;;;;;15.85;100.00;100682.78;5112124;28;20360;-76
2022/06/08 10:45:43;;;;;;;14.25;6.25;;;;;;;15.80;100.00;100688.28;5113405;28;20084;-76
2022/06/08 10:48:14;;;;;;;13.40;6.57;;;;;;;15.78;100.00;100689.25;5113232;28;20115;-76
2022/06/08 10:50:43;;;;;;;16.80;6.85;;;;;;;15.84;100.00;100686.34;5112031;28;20080;-76
2022/06/08 10:56:23;;;;;;;9.75;5.43;;;;;;;15.89;100.00;100684.31;5112302;28;20055;-75
2022/06/08 10:58:54;;;;;;;11.18;4.90;;;;;;;15.82;100.00;100688.19;5112813;28;20424;-75
2022/06/08 11:01:46;;;;;;;12.43;4.75;;;;;;;15.82;100.00;100683.78;5112985;28;20073;-75
2022/06/08 11:04:35;;;;;;;11.38;4.30;;;;;;;15.97;100.00;100681.34;5080484;28;20043;-76
2022/06/08 11:07:11;;;;;;;13.50;5.00;;;;;;;16.05;100.00;100674.78;5112727;28;20147;-76
2022/06/08 11:09:36;;;;;;;11.48;4.57;;;;;;;16.01;100.00;100667.13;5112869;28;20031;-75
2022/06/08 11:12:10;;;;;;;9.43;4.00;;;;;;;15.89;100.00;100663.28;5111893;28;20028;-76
2022/06/08 11:14:48;;;;;;;11.18;4.30;;;;;;;15.73;100.00;100663.22;5112961;28;20671;-75
2022/06/08 11:17:22;;;;;;;7.55;3.85;;;;;;;15.58;100.00;100663.88;5112079;28;20028;-76
2022/06/08 11:19:50;;;;;;;10.02;4.50;;;;;;;15.62;100.00;100657.56;5112524;28;20068;-76
2022/06/08 11:22:23;;;;;;;11.10;4.47;;;;;;;15.47;100.00;100653.91;5112784;28;20087;-76
2022/06/08 11:24:53;;;;;;;12.07;4.68;;;;;;;15.30;100.00;100649.41;5112034;28;20098;-76
2022/06/08 11:27:32;;;;;;;9.85;4.50;;;;;;;15.33;100.00;100648.41;5112874;28;20031;-76
2022/06/08 11:30:26;;;;;;;10.55;4.65;;;;;;;15.43;100.00;100647.06;5112591;28;20024;-76
2022/06/08 11:32:51;;;;;;;11.85;4.90;;;;;;;15.48;100.00;100641.59;5115413;28;20035;-76
2022/06/08 11:36:21;;;;;;;15.10;5.40;;;;;;;15.61;100.00;100637.47;5116492;28;20035;-76
2022/06/08 11:38:54;;;;;;;15.63;5.65;;;;;;;15.71;100.00;100632.66;5052417;28;20810;-76
2022/06/08 11:41:19;;;;;;;;;;;;;;;15.66;100.00;100624.94;5107025;28;20387;-76
2022/06/08 11:43:47;;;;;;;9.40;5.07;;;;;;;15.62;100.00;100631.28;5116198;28;19927;-76